Friday, April 18, 2014, 4:02 AM EDT

KTHV, York Airport

Location: Spring Grove, PA, United States Lat: 39.917
Local Time: 4:02 AM EDT ( 8:02 GMT) Lon: -76.883
Time Zone: US/Eastern Elev: 478 ft

Show me the last for .
Show Decoded

2014-04-18 02:53 METAR KTHV 180653Z AUTO 11006KT 10SM CLR 02/M01 A3050 RMK AO2 SLP334 T00171011 =
2014-04-18 01:53 METAR KTHV 180553Z AUTO 12004KT 10SM CLR 01/M02 A3054 RMK AO2 SLP346 T00111017
                 10083 20011 58009 =
2014-04-18 00:53 METAR KTHV 180453Z AUTO 21003KT 10SM CLR 03/M01 A3060 RMK AO2 SLP366 T00281011
                 401221039 =
2014-04-18 00:17 METAR KTHV 180417Z AUTO 18004KT 10SM SCT025 04/M01 A3060 RMK AO2 PRESRR
                 T00441006 =
2014-04-17 23:53 METAR KTHV 180353Z AUTO 16007KT 10SM OVC026 05/00 A3057 RMK AO2 SLP359 T00500000
                 =
2014-04-17 23:07 METAR KTHV 180307Z AUTO 14010KT 10SM BKN027 06/00 A3056 RMK AO2 T00560000 =
2014-04-17 22:53 METAR KTHV 180253Z AUTO 14009KT 10SM FEW027 06/00 A3057 RMK AO2 SLP355 T00560000
                 51009 =
2014-04-17 21:53 METAR KTHV 180153Z AUTO 15009KT 10SM CLR 06/01 A3056 RMK AO2 SLP354 T00610006 =
2014-04-17 20:53 METAR KTHV 180053Z AUTO 14006KT 10SM CLR 07/00 A3055 RMK AO2 SLP351 T00670000 =
2014-04-17 19:53 METAR KTHV 172353Z AUTO 14008KT 10SM CLR 09/M01 A3054 RMK AO2 SLP346 T00891006
                 10122 20083 58003 =
2014-04-17 18:53 METAR KTHV 172253Z AUTO 13011KT 10SM CLR 11/M01 A3054 RMK AO2 SLP348 T01061011 =
2014-04-17 17:53 METAR KTHV 172153Z AUTO 15009KT 10SM CLR 12/M02 A3055 RMK AO2 SLP350 T01171022 =
2014-04-17 16:53 METAR KTHV 172053Z AUTO 15008KT 10SM CLR 12/M02 A3055 RMK AO2 SLP350 T01221017
                 56020 =
2014-04-17 15:53 METAR KTHV 171953Z AUTO 12010G16KT 10SM CLR 12/M01 A3056 RMK AO2 SLP353
                 T01221011 =
2014-04-17 14:53 METAR KTHV 171853Z AUTO 14011KT 10SM FEW050 12/M02 A3058 RMK AO2 SLP362
                 T01171017 =
2014-04-17 13:53 METAR KTHV 171753Z AUTO 13009KT 10SM CLR 12/M02 A3061 RMK AO2 SLP371 T01171017
                 10117 20017 56015 =
2014-04-17 12:53 METAR KTHV 171653Z AUTO 14008KT 10SM CLR 10/M03 A3062 RMK AO2 SLP375 T01001028 =
2014-04-17 11:53 METAR KTHV 171553Z AUTO 10008KT 10SM CLR 09/M03 A3064 RMK AO2 SLP381 T00941033 =
2014-04-17 10:53 METAR KTHV 171453Z AUTO 13010G14KT 10SM CLR 09/M03 A3065 RMK AO2 SLP385
                 T00891033 50004 =
2014-04-17 09:53 METAR KTHV 171353Z AUTO 14010KT 10SM CLR 07/M04 A3066 RMK AO2 SLP387 T00671044 =
2014-04-17 08:53 METAR KTHV 171253Z AUTO 11008KT 10SM CLR 04/M04 A3065 RMK AO2 SLP384 T00441039 =
2014-04-17 07:53 METAR KTHV 171153Z AUTO 12003KT 10SM CLR 02/M04 A3064 RMK AO2 SLP382 T00171039
                 10017 21039 53023 =
2014-04-17 06:53 METAR KTHV 171053Z AUTO 00000KT 10SM CLR M03/M06 A3061 RMK AO2 SLP373 T10281056
                 =
2014-04-17 05:53 METAR KTHV 170953Z AUTO 00000KT 10SM CLR M03/M07 A3059 RMK AO2 SLP364 T10331067
                 =
2014-04-17 04:53 METAR KTHV 170853Z AUTO 00000KT 10SM CLR M03/M05 A3057 RMK AO2 SLP359 T10331050
                 53003 =

Support USWX by starting your Amazon purchase here.